Time;durP1;ratioP1;P1;durP2;ratioP2;P2;SDS_P1;SDS_P2;PMS_P1;PMS_P2;Temp;Humidity;BMP_temperature;BMP_pressure;BME280_temperature;BME280_humidity;BME280_pressure;Samples;Min_cycle;Max_cycle;Signal;HPM_P1;HPM_P2
2022/11/25 00:00:48;;;;;;;17.43;7.00;;;2.30;99.90;;;;;;5009345;28;20217;-59
2022/11/25 00:03:14;;;;;;;15.30;6.13;;;2.30;99.90;;;;;;5028457;28;20681;-59
2022/11/25 00:05:41;;;;;;;27.93;6.10;;;2.40;99.90;;;;;;5024603;28;20206;-59
2022/11/25 00:08:07;;;;;;;10.07;5.57;;;2.40;99.90;;;;;;5031629;28;20263;-59
2022/11/25 00:10:32;;;;;;;19.47;6.23;;;2.40;99.90;;;;;;5022592;28;20543;-59
2022/11/25 00:12:58;;;;;;;21.90;6.33;;;2.40;99.90;;;;;;5026969;28;20432;-60
2022/11/25 00:15:23;;;;;;;18.40;7.67;;;2.40;99.90;;;;;;5029307;28;20273;-59
2022/11/25 00:17:49;;;;;;;19.07;7.73;;;2.40;99.90;;;;;;5033177;28;20229;-60
2022/11/25 00:20:14;;;;;;;29.33;8.30;;;2.40;99.90;;;;;;5027202;28;21026;-59
2022/11/25 00:22:40;;;;;;;22.97;10.63;;;2.40;99.90;;;;;;5026598;28;20180;-60
2022/11/25 00:25:06;;;;;;;27.40;10.10;;;2.40;99.90;;;;;;5027606;28;20237;-59
2022/11/25 00:27:31;;;;;;;33.77;9.20;;;2.40;99.90;;;;;;5030886;28;20545;-59
2022/11/25 00:29:57;;;;;;;43.90;11.07;;;2.40;99.90;;;;;;5011270;28;20441;-59
2022/11/25 00:32:23;;;;;;;44.47;12.30;;;2.40;99.90;;;;;;5026715;28;20577;-60
2022/11/25 00:34:48;;;;;;;38.60;11.60;;;2.40;99.90;;;;;;5029999;28;20230;-59
2022/11/25 00:37:14;;;;;;;62.13;11.77;;;2.40;99.90;;;;;;5029379;28;20182;-59
2022/11/25 00:39:39;;;;;;;122.63;13.60;;;2.40;99.90;;;;;;5027099;28;20180;-59
2022/11/25 00:44:49;;;;;;;29.27;10.20;;;2.40;99.90;;;;;;5030760;28;20320;-60
2022/11/25 00:47:17;;;;;;;38.63;11.50;;;2.30;99.90;;;;;;5026136;28;20500;-59
2022/11/25 00:49:48;;;;;;;75.87;11.37;;;2.30;99.90;;;;;;5027717;28;20176;-59
2022/11/25 00:52:19;;;;;;;25.43;10.07;;;2.30;99.90;;;;;;5021761;28;20688;-60
2022/11/25 00:54:46;;;;;;;34.97;9.73;;;2.30;99.90;;;;;;5018531;28;21131;-60
2022/11/25 00:57:12;;;;;;;35.93;9.90;;;2.30;99.90;;;;;;5028881;28;20456;-59
2022/11/25 00:59:38;;;;;;;34.67;11.27;;;2.30;99.90;;;;;;5028500;28;20830;-57
2022/11/25 01:02:04;;;;;;;42.27;11.77;;;2.30;99.90;;;;;;5024354;28;20462;-59
2022/11/25 01:04:30;;;;;;;57.63;11.87;;;2.30;99.90;;;;;;5007929;28;20291;-60
2022/11/25 01:06:58;;;;;;;51.13;10.87;;;2.30;99.90;;;;;;5030941;28;20208;-59
2022/11/25 01:09:24;;;;;;;70.20;10.77;;;2.30;99.90;;;;;;5013925;28;20644;-60
2022/11/25 01:11:50;;;;;;;98.97;13.03;;;2.30;99.90;;;;;;5027712;28;20532;-59
2022/11/25 01:14:16;;;;;;;80.23;14.93;;;2.30;99.90;;;;;;5028017;28;20426;-60
2022/11/25 01:16:42;;;;;;;72.93;14.57;;;2.30;99.90;;;;;;5026345;28;20466;-59
2022/11/25 01:19:08;;;;;;;76.80;13.40;;;2.30;99.90;;;;;;5029726;28;20469;-60
2022/11/25 01:21:34;;;;;;;51.63;12.83;;;2.30;99.90;;;;;;5026776;28;20780;-60
2022/11/25 01:24:02;;;;;;;62.23;13.20;;;2.30;99.90;;;;;;5028243;28;20551;-60
2022/11/25 01:26:29;;;;;;;49.57;13.33;;;2.20;99.90;;;;;;5011527;28;20958;-60
2022/11/25 01:29:06;;;;;;;81.07;13.67;;;2.30;99.90;;;;;;5028904;28;20423;-60
2022/11/25 01:31:34;;;;;;;56.53;13.40;;;2.20;99.90;;;;;;5020236;28;20434;-60
2022/11/25 01:34:21;;;;;;;52.93;11.93;;;2.20;99.90;;;;;;5027845;28;20422;-58
2022/11/25 01:36:47;;;;;;;58.40;13.40;;;2.20;99.90;;;;;;5028569;28;20434;-60
2022/11/25 01:39:18;;;;;;;84.03;13.60;;;2.20;99.90;;;;;;5027896;28;20430;-59
2022/11/25 01:41:45;;;;;;;71.17;11.30;;;2.20;99.90;;;;;;5026088;28;20512;-60
2022/11/25 01:44:13;;;;;;;50.00;11.20;;;2.20;99.90;;;;;;5029935;28;20465;-58
2022/11/25 01:47:14;;;;;;;27.80;11.43;;;2.10;99.90;;;;;;5024150;28;20466;-60
2022/11/25 01:50:01;;;;;;;79.77;14.50;;;2.10;99.90;;;;;;5011649;28;20433;-60
2022/11/25 01:52:29;;;;;;;48.23;12.60;;;2.20;99.90;;;;;;5026735;28;20426;-58
2022/11/25 01:55:04;;;;;;;40.90;10.10;;;2.20;99.90;;;;;;5029364;28;20454;-60
2022/11/25 01:57:36;;;;;;;54.37;12.23;;;2.20;99.90;;;;;;5028467;28;21162;-59
2022/11/25 02:00:04;;;;;;;30.60;9.77;;;2.10;99.90;;;;;;5025032;28;20409;-59
2022/11/25 02:02:30;;;;;;;48.20;8.50;;;2.10;99.90;;;;;;5026844;28;20438;-59
2022/11/25 02:04:57;;;;;;;47.40;9.70;;;2.20;99.90;;;;;;5028224;28;20461;-59
2022/11/25 02:07:35;;;;;;;101.40;11.63;;;2.10;99.90;;;;;;5030154;28;20419;-60
2022/11/25 02:10:03;;;;;;;23.63;9.47;;;2.10;99.90;;;;;;5030397;28;20421;-59
2022/11/25 02:12:29;;;;;;;31.97;8.10;;;2.10;99.90;;;;;;5023116;28;20488;-61
2022/11/25 02:14:57;;;;;;;25.37;7.47;;;2.00;99.90;;;;;;5025913;28;20549;-60
2022/11/25 02:17:23;;;;;;;24.23;6.90;;;2.00;99.90;;;;;;5020500;28;21036;-59
2022/11/25 02:19:55;;;;;;;26.27;5.83;;;2.00;99.90;;;;;;5012398;28;21108;-59
2022/11/25 02:22:29;;;;;;;22.27;7.73;;;2.00;99.90;;;;;;5023785;28;20178;-59
2022/11/25 02:25:01;;;;;;;11.80;6.33;;;2.00;99.90;;;;;;5027499;28;20470;-60
2022/11/25 02:27:27;;;;;;;26.37;6.97;;;2.00;99.90;;;;;;5025211;28;20429;-59
2022/11/25 02:29:53;;;;;;;48.63;7.00;;;2.00;99.90;;;;;;5026618;28;20429;-60
2022/11/25 02:32:22;;;;;;;21.10;7.30;;;2.00;99.90;;;;;;5016794;28;20433;-59
2022/11/25 02:34:49;;;;;;;114.73;11.47;;;2.00;99.90;;;;;;5022524;28;20984;-58
2022/11/25 02:37:21;;;;;;;20.60;7.60;;;1.90;99.90;;;;;;5012205;28;20429;-57
2022/11/25 02:39:48;;;;;;;18.27;7.33;;;1.90;99.90;;;;;;5026156;28;20429;-60
2022/11/25 02:42:16;;;;;;;27.93;6.37;;;1.90;99.90;;;;;;5019590;28;20998;-60
2022/11/25 02:44:42;;;;;;;12.30;6.30;;;1.90;99.90;;;;;;5026736;28;20879;-61
2022/11/25 02:47:07;;;;;;;32.50;6.40;;;1.90;99.90;;;;;;5026316;28;20444;-60
2022/11/25 02:49:33;;;;;;;20.20;7.20;;;1.90;99.90;;;;;;5028842;28;20737;-60
2022/11/25 02:51:58;;;;;;;26.00;5.67;;;1.90;99.90;;;;;;5026724;28;20176;-60
2022/11/25 02:54:24;;;;;;;29.00;6.30;;;1.90;99.90;;;;;;5023118;28;20758;-60
2022/11/25 02:56:50;;;;;;;25.33;6.03;;;1.90;99.90;;;;;;5027090;28;20183;-58
2022/11/25 02:59:15;;;;;;;15.87;7.03;;;1.90;99.90;;;;;;5026662;28;20187;-60
2022/11/25 03:01:41;;;;;;;29.17;7.47;;;1.90;99.90;;;;;;5021840;28;20186;-59
2022/11/25 03:04:06;;;;;;;25.73;7.30;;;1.90;99.90;;;;;;5019923;28;20199;-60
2022/11/25 03:06:32;;;;;;;55.33;9.20;;;1.90;99.90;;;;;;5027075;28;20246;-60
2022/11/25 03:08:58;;;;;;;72.03;9.07;;;1.90;99.90;;;;;;5027577;28;20171;-60
2022/11/25 03:12:17;;;;;;;24.37;8.00;;;1.90;99.90;;;;;;5025392;28;20261;-60
2022/11/25 03:14:09;;;;;;;18.87;7.10;;;1.90;99.90;;;;;;5023822;28;20446;-60
2022/11/25 03:16:35;;;;;;;20.90;7.70;;;1.90;99.90;;;;;;5027592;28;20446;-60
2022/11/25 03:19:00;;;;;;;42.13;8.63;;;1.90;99.90;;;;;;5028251;28;20176;-60
2022/11/25 03:21:26;;;;;;;53.13;9.60;;;1.90;99.90;;;;;;5026996;28;20236;-59
2022/11/25 03:23:52;;;;;;;24.13;8.70;;;1.90;99.90;;;;;;5014326;28;20207;-60
2022/11/25 03:26:17;;;;;;;58.23;10.00;;;1.80;99.90;;;;;;5032231;28;20198;-59
2022/11/25 03:28:49;;;;;;;70.00;10.40;;;1.80;99.90;;;;;;5029450;28;20222;-58
2022/11/25 03:31:15;;;;;;;38.53;9.63;;;1.90;99.90;;;;;;5030895;28;20272;-59
2022/11/25 03:33:41;;;;;;;21.53;8.50;;;1.90;99.90;;;;;;5030893;28;20801;-59
2022/11/25 03:36:07;;;;;;;28.43;9.70;;;1.90;99.90;;;;;;5031857;28;20451;-60
2022/11/25 03:38:32;;;;;;;24.03;10.30;;;1.90;99.90;;;;;;5032519;28;20190;-60
2022/11/25 03:40:58;;;;;;;26.50;8.87;;;1.90;99.90;;;;;;5025805;28;20681;-59
2022/11/25 03:43:23;;;;;;;39.77;11.10;;;1.90;99.90;;;;;;5030134;28;20260;-59
2022/11/25 03:45:49;;;;;;;28.30;10.30;;;1.90;99.90;;;;;;5035159;28;20245;-59
2022/11/25 03:48:15;;;;;;;39.93;13.07;;;1.90;99.90;;;;;;5028072;28;20586;-59
2022/11/25 03:50:41;;;;;;;29.13;11.23;;;1.90;99.90;;;;;;5034759;28;20195;-60
2022/11/25 03:53:07;;;;;;;70.67;11.03;;;1.90;99.90;;;;;;5032333;28;20232;-59
2022/11/25 03:55:33;;;;;;;44.83;8.87;;;1.90;99.90;;;;;;5015637;28;20481;-60
2022/11/25 03:57:58;;;;;;;29.60;9.73;;;1.90;99.90;;;;;;5032947;28;21235;-59
2022/11/25 04:00:24;;;;;;;53.93;10.50;;;1.90;99.90;;;;;;5033887;28;20644;-60
2022/11/25 04:02:50;;;;;;;42.97;11.97;;;1.90;99.90;;;;;;5027977;28;20216;-59
2022/11/25 04:05:15;;;;;;;23.27;8.80;;;1.90;99.90;;;;;;5029882;28;20260;-59
2022/11/25 04:07:41;;;;;;;34.57;9.67;;;1.90;99.90;;;;;;5029523;28;20273;-60
2022/11/25 04:10:07;;;;;;;35.43;8.67;;;1.90;99.90;;;;;;5016191;28;20198;-58
2022/11/25 04:12:48;;;;;;;29.37;9.77;;;1.90;99.90;;;;;;5032383;28;20237;-59
2022/11/25 04:15:16;;;;;;;40.37;10.63;;;1.90;99.90;;;;;;5030906;28;20446;-59
2022/11/25 04:17:41;;;;;;;32.80;9.53;;;1.90;99.90;;;;;;5014302;28;20423;-59
2022/11/25 04:20:08;;;;;;;59.53;10.77;;;1.90;99.90;;;;;;5028056;28;20778;-59
2022/11/25 04:22:34;;;;;;;30.43;9.80;;;1.90;99.90;;;;;;5037131;28;20599;-59
2022/11/25 04:25:00;;;;;;;45.70;10.70;;;1.80;99.90;;;;;;5025871;28;20459;-59
2022/11/25 04:27:25;;;;;;;67.20;10.87;;;1.90;99.90;;;;;;5029127;28;20794;-59
2022/11/25 04:29:51;;;;;;;41.23;11.47;;;1.80;99.90;;;;;;5011156;28;20183;-59
2022/11/25 04:32:17;;;;;;;51.57;11.63;;;1.80;99.90;;;;;;5024229;28;20186;-60
2022/11/25 04:34:42;;;;;;;46.73;10.97;;;1.80;99.90;;;;;;5025552;28;20222;-59
2022/11/25 04:37:08;;;;;;;50.03;10.70;;;1.80;99.90;;;;;;5029415;28;20180;-59
2022/11/25 04:39:33;;;;;;;39.97;9.93;;;1.80;99.90;;;;;;5025548;28;20702;-59
2022/11/25 04:44:43;;;;;;;30.33;8.50;;;1.80;99.90;;;;;;5026749;28;20229;-58
2022/11/25 04:47:09;;;;;;;31.73;8.00;;;1.80;99.90;;;;;;5031599;28;20454;-59
2022/11/25 04:49:35;;;;;;;17.40;6.73;;;1.70;99.90;;;;;;5025245;28;20187;-59
2022/11/25 04:52:01;;;;;;;15.87;6.37;;;1.70;99.90;;;;;;5025711;28;20263;-58
2022/11/25 04:54:27;;;;;;;9.77;5.60;;;1.70;99.90;;;;;;5021928;28;20710;-59
2022/11/25 04:56:52;;;;;;;10.93;5.70;;;1.70;99.90;;;;;;5021407;28;20434;-59
2022/11/25 05:02:03;;;;;;;10.33;6.20;;;1.70;99.90;;;;;;5019116;28;20182;-57
2022/11/25 05:04:28;;;;;;;9.03;4.57;;;1.70;99.90;;;;;;5008747;28;20461;-58
2022/11/25 05:06:54;;;;;;;7.10;4.80;;;1.80;99.90;;;;;;5019198;28;20168;-58
2022/11/25 05:09:20;;;;;;;8.93;5.00;;;1.70;99.90;;;;;;5017377;28;20623;-57
2022/11/25 05:11:45;;;;;;;12.30;5.80;;;1.70;99.90;;;;;;5019606;28;20179;-59
2022/11/25 05:14:11;;;;;;;6.90;5.27;;;1.80;99.90;;;;;;5015532;28;20543;-60
2022/11/25 05:16:37;;;;;;;8.60;5.40;;;1.70;99.90;;;;;;5018177;28;20203;-59
2022/11/25 05:19:02;;;;;;;7.60;4.80;;;1.80;99.90;;;;;;5024835;28;20190;-59
2022/11/25 05:21:28;;;;;;;6.80;4.90;;;1.80;99.90;;;;;;5019841;28;20179;-59
2022/11/25 05:23:54;;;;;;;7.93;4.80;;;1.80;99.90;;;;;;5017420;28;20209;-59
2022/11/25 05:26:20;;;;;;;8.20;5.40;;;1.80;99.90;;;;;;5023437;28;20596;-59
2022/11/25 05:28:45;;;;;;;10.00;4.80;;;1.80;99.90;;;;;;5023539;28;20439;-58
2022/11/25 05:31:11;;;;;;;9.30;5.10;;;1.80;99.90;;;;;;5017148;28;20176;-60
2022/11/25 05:33:37;;;;;;;7.73;4.67;;;1.80;99.90;;;;;;5019217;28;20272;-60
2022/11/25 05:36:03;;;;;;;7.73;5.10;;;1.80;99.90;;;;;;5019961;28;20603;-58
2022/11/25 05:38:29;;;;;;;8.20;5.00;;;1.80;99.90;;;;;;5021310;28;20206;-59
2022/11/25 05:41:04;;;;;;;9.33;5.97;;;1.80;99.90;;;;;;5017293;28;20497;-58
2022/11/25 05:43:30;;;;;;;7.90;5.30;;;1.80;99.90;;;;;;5015510;28;20207;-60
2022/11/25 05:45:55;;;;;;;8.03;5.17;;;1.80;99.90;;;;;;5020644;28;20464;-60
2022/11/25 05:48:21;;;;;;;12.53;6.13;;;1.80;99.90;;;;;;5027337;28;20195;-59
2022/11/25 05:50:47;;;;;;;11.40;5.70;;;1.90;99.90;;;;;;5028326;28;20542;-60
2022/11/25 05:53:13;;;;;;;13.17;6.00;;;1.90;99.90;;;;;;5027823;28;20814;-60
2022/11/25 05:55:38;;;;;;;9.17;5.60;;;1.90;99.90;;;;;;5023663;28;20336;-60
2022/11/25 05:58:05;;;;;;;8.83;5.83;;;1.90;99.90;;;;;;5008354;28;20962;-60
2022/11/25 06:00:31;;;;;;;9.30;5.80;;;2.00;99.90;;;;;;5007856;28;20195;-60
2022/11/25 06:02:56;;;;;;;8.27;5.60;;;2.00;99.90;;;;;;5023819;28;20427;-60
2022/11/25 06:05:22;;;;;;;10.10;6.00;;;2.00;99.90;;;;;;5021848;28;21240;-60
2022/11/25 06:07:48;;;;;;;9.63;5.73;;;2.00;99.90;;;;;;5020780;28;20178;-60
2022/11/25 06:10:15;;;;;;;13.67;6.73;;;2.00;99.90;;;;;;5028820;28;20939;-60
2022/11/25 06:12:41;;;;;;;9.40;6.37;;;2.00;99.90;;;;;;5021884;28;20941;-60
2022/11/25 06:15:07;;;;;;;11.83;7.27;;;2.00;99.90;;;;;;5027497;28;20454;-60
2022/11/25 06:17:33;;;;;;;11.47;6.90;;;2.00;99.90;;;;;;5013883;28;20172;-60
2022/11/25 06:19:58;;;;;;;11.23;7.03;;;2.00;99.90;;;;;;5023013;28;20438;-60
2022/11/25 06:22:24;;;;;;;10.00;6.50;;;1.90;99.90;;;;;;5018752;28;20288;-59
2022/11/25 06:24:50;;;;;;;13.60;8.53;;;1.90;99.90;;;;;;5021517;28;20227;-59
2022/11/25 06:27:15;;;;;;;9.13;6.60;;;2.00;99.90;;;;;;5023946;28;20663;-60
2022/11/25 06:29:41;;;;;;;14.03;8.23;;;2.00;99.90;;;;;;5024701;28;20173;-60
2022/11/25 06:32:06;;;;;;;14.17;6.90;;;2.00;99.90;;;;;;5021145;28;20782;-60
2022/11/25 06:34:32;;;;;;;9.93;6.40;;;2.00;99.90;;;;;;5022413;28;20194;-60
2022/11/25 06:36:58;;;;;;;11.30;6.87;;;2.00;99.90;;;;;;5029030;28;20637;-60
2022/11/25 06:39:23;;;;;;;8.33;6.60;;;2.00;99.90;;;;;;5027794;28;20596;-56
2022/11/25 06:41:49;;;;;;;11.67;7.03;;;2.00;99.90;;;;;;5020000;28;20282;-60
2022/11/25 06:44:15;;;;;;;11.67;6.37;;;2.10;99.90;;;;;;5022038;28;20291;-60
2022/11/25 06:46:40;;;;;;;12.80;7.20;;;2.10;99.90;;;;;;5020167;28;20692;-60
2022/11/25 06:49:06;;;;;;;14.40;7.03;;;2.10;99.90;;;;;;5020819;28;20176;-60
2022/11/25 06:51:32;;;;;;;13.77;7.33;;;2.10;99.90;;;;;;5023549;28;20182;-60
2022/11/25 06:53:57;;;;;;;12.43;7.20;;;2.10;99.90;;;;;;5025483;28;20674;-59
2022/11/25 06:56:26;;;;;;;13.60;7.20;;;2.20;99.90;;;;;;5015124;28;20463;-60
2022/11/25 06:58:52;;;;;;;14.53;7.50;;;2.20;99.90;;;;;;5027182;28;20201;-60
2022/11/25 07:01:23;;;;;;;19.90;6.73;;;2.20;99.90;;;;;;5022605;28;20450;-60
2022/11/25 07:03:52;;;;;;;19.07;7.47;;;2.20;99.90;;;;;;5020279;28;20461;-61
2022/11/25 07:06:18;;;;;;;16.90;6.40;;;2.20;99.90;;;;;;5027286;28;20462;-60
2022/11/25 07:08:45;;;;;;;13.23;6.63;;;2.20;99.90;;;;;;5020157;28;20511;-60
2022/11/25 07:11:22;;;;;;;12.83;7.47;;;2.20;99.90;;;;;;5025783;28;20469;-59
2022/11/25 07:13:52;;;;;;;13.93;7.87;;;2.30;99.90;;;;;;5024191;28;20960;-59
2022/11/25 07:16:18;;;;;;;11.97;6.90;;;2.30;99.90;;;;;;5018700;28;20461;-60
2022/11/25 07:18:43;;;;;;;12.43;7.20;;;2.30;99.90;;;;;;5029448;28;20428;-60
2022/11/25 07:21:15;;;;;;;12.20;6.00;;;2.30;99.90;;;;;;5007103;28;20181;-60
2022/11/25 07:23:42;;;;;;;11.27;6.30;;;2.30;99.90;;;;;;5025700;28;20203;-59
2022/11/25 07:26:15;;;;;;;12.10;6.80;;;2.30;99.90;;;;;;5022368;28;20463;-60
2022/11/25 07:28:41;;;;;;;14.57;7.53;;;2.30;99.90;;;;;;5022349;28;20522;-60
2022/11/25 07:31:24;;;;;;;14.63;6.80;;;2.30;99.90;;;;;;5026918;28;20914;-60
2022/11/25 07:34:01;;;;;;;15.20;8.37;;;2.30;99.90;;;;;;5025881;28;20526;-60
2022/11/25 07:36:27;;;;;;;16.20;7.53;;;2.40;99.90;;;;;;5018434;28;20457;-60
2022/11/25 07:38:53;;;;;;;11.87;7.07;;;2.40;99.90;;;;;;5004380;28;20509;-60
2022/11/25 07:41:22;;;;;;;14.40;7.07;;;2.40;99.90;;;;;;5021961;28;20445;-60
2022/11/25 07:43:50;;;;;;;9.03;6.43;;;2.40;99.90;;;;;;5018432;28;20472;-60
2022/11/25 07:46:17;;;;;;;10.90;6.10;;;2.40;99.90;;;;;;5005153;28;20474;-60
2022/11/25 07:48:43;;;;;;;9.03;5.30;;;2.40;99.90;;;;;;5021440;28;20449;-60
2022/11/25 07:51:16;;;;;;;11.47;6.50;;;2.40;99.90;;;;;;5016782;28;20542;-60
2022/11/25 07:53:42;;;;;;;16.70;6.83;;;2.40;99.90;;;;;;5020036;28;20488;-59
2022/11/25 07:56:08;;;;;;;15.37;6.37;;;2.50;99.90;;;;;;5022325;28;20444;-59
2022/11/25 07:58:33;;;;;;;16.53;7.20;;;2.50;99.90;;;;;;5014850;28;20500;-59
2022/11/25 08:01:03;;;;;;;17.47;7.83;;;2.60;99.90;;;;;;5006137;28;20714;-59
2022/11/25 08:03:36;;;;;;;17.00;7.70;;;2.60;99.90;;;;;;5016535;28;20217;-60
2022/11/25 08:06:10;;;;;;;13.40;6.53;;;2.60;99.90;;;;;;5015999;28;20557;-60
2022/11/25 08:08:37;;;;;;;13.73;7.07;;;2.70;99.90;;;;;;5009791;28;20438;-60
2022/11/25 08:11:08;;;;;;;14.40;7.90;;;2.70;99.90;;;;;;5022105;28;20523;-60
2022/11/25 08:13:34;;;;;;;13.73;7.60;;;2.80;99.90;;;;;;5025505;28;20437;-59
2022/11/25 08:16:00;;;;;;;19.23;8.70;;;2.80;99.90;;;;;;5021983;28;20461;-60
2022/11/25 08:18:26;;;;;;;14.00;9.13;;;2.90;99.90;;;;;;5014035;28;20556;-59
2022/11/25 08:20:57;;;;;;;12.53;7.50;;;2.90;99.90;;;;;;5006213;28;20240;-59
2022/11/25 08:23:22;;;;;;;19.43;7.87;;;3.00;99.90;;;;;;5023805;28;21288;-60
2022/11/25 08:25:48;;;;;;;16.77;7.87;;;3.00;99.90;;;;;;5024103;28;20450;-60
2022/11/25 08:28:14;;;;;;;16.80;8.87;;;3.00;99.90;;;;;;5027659;28;20203;-60
2022/11/25 08:30:39;;;;;;;15.60;8.10;;;3.00;99.90;;;;;;5024046;28;20191;-60
2022/11/25 08:33:06;;;;;;;12.97;7.57;;;3.10;99.90;;;;;;5019690;28;20180;-59
2022/11/25 08:35:36;;;;;;;17.10;8.77;;;3.10;99.90;;;;;;5017515;28;20196;-60
2022/11/25 08:38:06;;;;;;;16.83;8.33;;;3.10;99.90;;;;;;5024907;28;20942;-60
2022/11/25 08:40:33;;;;;;;15.67;7.40;;;3.20;99.90;;;;;;5023473;28;20441;-60
2022/11/25 08:42:59;;;;;;;12.27;7.50;;;3.20;99.90;;;;;;5025336;28;20788;-59
2022/11/25 08:45:25;;;;;;;16.13;7.93;;;3.20;99.90;;;;;;5007435;28;20516;-60
2022/11/25 08:47:51;;;;;;;16.93;8.10;;;3.20;99.90;;;;;;5030311;28;20858;-60
2022/11/25 08:50:17;;;;;;;18.53;8.13;;;3.30;99.90;;;;;;5026159;28;20208;-60
2022/11/25 08:52:43;;;;;;;15.30;7.60;;;3.30;99.90;;;;;;5024929;28;20182;-60
2022/11/25 08:55:09;;;;;;;13.80;7.90;;;3.40;99.90;;;;;;5020005;28;20207;-60
2022/11/25 08:57:34;;;;;;;11.13;7.00;;;3.40;99.90;;;;;;5025944;28;20895;-60
2022/11/25 09:00:00;;;;;;;13.40;7.90;;;3.50;99.90;;;;;;5021201;28;20425;-61
2022/11/25 09:02:26;;;;;;;14.57;8.33;;;3.60;99.90;;;;;;5020654;28;20184;-61
2022/11/25 09:04:51;;;;;;;17.70;7.90;;;3.60;99.90;;;;;;5025098;28;20211;-59
2022/11/25 09:07:17;;;;;;;14.97;8.60;;;3.70;99.90;;;;;;5021670;28;20320;-60
2022/11/25 09:09:43;;;;;;;18.93;11.53;;;3.80;99.90;;;;;;5028440;28;20172;-60
2022/11/25 09:12:09;;;;;;;29.17;12.40;;;3.90;99.90;;;;;;5012731;28;20172;-60
2022/11/25 09:14:34;;;;;;;31.23;16.10;;;3.90;99.90;;;;;;5022417;28;20195;-61
2022/11/25 09:17:00;;;;;;;35.33;16.90;;;4.00;99.90;;;;;;5027315;28;20823;-60
2022/11/25 09:19:26;;;;;;;33.70;16.90;;;4.00;99.90;;;;;;5029320;28;20180;-60
2022/11/25 09:21:53;;;;;;;39.30;17.63;;;4.10;99.90;;;;;;5020748;28;20514;-59
2022/11/25 09:24:19;;;;;;;35.73;18.47;;;4.10;99.90;;;;;;5024751;28;20466;-60
2022/11/25 09:26:45;;;;;;;34.17;16.10;;;4.20;99.90;;;;;;5024086;28;21009;-60
2022/11/25 09:29:12;;;;;;;28.00;15.70;;;4.20;99.90;;;;;;5024536;28;20500;-60
2022/11/25 09:31:39;;;;;;;34.30;15.97;;;4.30;99.90;;;;;;5025123;28;20525;-61
2022/11/25 09:34:06;;;;;;;33.10;16.67;;;4.30;99.90;;;;;;5004732;28;20497;-59
2022/11/25 09:36:31;;;;;;;32.57;16.00;;;4.40;99.90;;;;;;5021651;28;20467;-61
2022/11/25 09:38:57;;;;;;;31.27;15.47;;;4.50;99.90;;;;;;5020604;28;20461;-60
2022/11/25 09:47:54;;;;;;;29.33;15.00;;;4.80;99.90;;;;;;5031420;28;20985;-60
2022/11/25 09:50:38;;;;;;;27.00;14.63;;;4.90;99.90;;;;;;5018968;28;20434;-61
2022/11/25 09:53:10;;;;;;;28.83;14.47;;;5.10;99.90;;;;;;5027434;28;20426;-61
2022/11/25 09:55:44;;;;;;;34.40;16.90;;;5.30;99.90;;;;;;5022021;28;20466;-60
2022/11/25 09:58:27;;;;;;;36.03;16.50;;;5.40;99.90;;;;;;5029507;28;20433;-60
2022/11/25 10:00:52;;;;;;;30.43;15.13;;;5.40;99.90;;;;;;5018437;28;20438;-61
2022/11/25 10:03:28;;;;;;;23.37;14.13;;;5.40;99.90;;;;;;4998179;28;20508;-60
2022/11/25 10:06:12;;;;;;;30.70;13.13;;;5.40;99.90;;;;;;5015854;28;20191;-61
2022/11/25 10:08:41;;;;;;;27.63;14.00;;;5.40;99.90;;;;;;5025515;28;20430;-61
2022/11/25 10:11:25;;;;;;;26.33;12.57;;;5.50;99.90;;;;;;5019762;28;20426;-62
2022/11/25 10:14:01;;;;;;;21.93;12.70;;;5.50;99.90;;;;;;5022578;28;20445;-61
2022/11/25 10:16:32;;;;;;;24.33;12.40;;;5.60;99.90;;;;;;5021966;28;20456;-60
2022/11/25 10:19:41;;;;;;;27.80;12.17;;;5.70;99.90;;;;;;5023684;28;20430;-61
2022/11/25 10:22:14;;;;;;;30.83;12.43;;;5.80;99.90;;;;;;5000070;28;20442;-61
2022/11/25 10:24:40;;;;;;;29.20;15.17;;;5.90;99.90;;;;;;5025456;28;20550;-60
2022/11/25 10:27:14;;;;;;;29.00;15.00;;;6.00;99.90;;;;;;5018009;28;20513;-61
2022/11/25 10:29:41;;;;;;;29.17;14.00;;;6.10;99.90;;;;;;5005492;28;20179;-60
2022/11/25 10:32:15;;;;;;;32.03;12.37;;;6.20;99.90;;;;;;5031523;28;20434;-60
2022/11/25 10:34:49;;;;;;;21.07;12.13;;;6.20;99.90;;;;;;5019382;28;20430;-60
2022/11/25 10:37:26;;;;;;;24.57;12.93;;;6.20;99.90;;;;;;5024990;28;20434;-61
2022/11/25 10:39:51;;;;;;;22.50;11.27;;;6.20;99.90;;;;;;5018285;28;20496;-60
2022/11/25 10:42:22;;;;;;;30.33;12.80;;;6.30;99.90;;;;;;5021256;28;20438;-61
2022/11/25 10:44:48;;;;;;;32.37;12.67;;;6.30;99.90;;;;;;5021558;28;20219;-60
2022/11/25 10:47:49;;;;;;;32.17;13.13;;;6.40;99.90;;;;;;5008776;28;20454;-61
2022/11/25 10:50:32;;;;;;;37.67;12.40;;;6.40;99.90;;;;;;5022171;28;20237;-60
2022/11/25 10:53:03;;;;;;;23.23;10.87;;;6.50;99.90;;;;;;5020682;28;20453;-61
2022/11/25 10:55:31;;;;;;;18.40;11.10;;;6.40;99.90;;;;;;5023626;28;20466;-60
2022/11/25 10:57:58;;;;;;;20.10;12.00;;;6.50;99.90;;;;;;5021984;28;20455;-61
2022/11/25 11:00:31;;;;;;;21.03;11.83;;;6.50;99.90;;;;;;5027148;28;20426;-61
2022/11/25 11:03:00;;;;;;;19.40;11.00;;;6.60;99.90;;;;;;5005960;28;21052;-60
2022/11/25 11:05:29;;;;;;;23.10;12.00;;;6.60;99.90;;;;;;5029015;28;20454;-61
2022/11/25 11:08:14;;;;;;;17.70;8.90;;;6.80;99.90;;;;;;5007871;28;20702;-60
2022/11/25 11:10:40;;;;;;;21.53;8.77;;;6.80;99.90;;;;;;5026392;28;20457;-61
2022/11/25 11:13:29;;;;;;;20.30;9.13;;;6.90;99.90;;;;;;5022494;28;20544;-62
2022/11/25 11:15:54;;;;;;;13.90;8.50;;;7.00;99.90;;;;;;5022553;28;20748;-61
2022/11/25 11:18:28;;;;;;;18.10;8.07;;;7.10;99.90;;;;;;5028993;28;20506;-60
2022/11/25 11:20:58;;;;;;;14.80;8.53;;;7.20;99.90;;;;;;5026024;28;20834;-60
2022/11/25 11:23:26;;;;;;;14.83;8.23;;;7.20;99.90;;;;;;5024001;28;20501;-61
2022/11/25 11:25:58;;;;;;;14.23;8.80;;;7.20;99.90;;;;;;5006180;28;20454;-60
2022/11/25 11:28:35;;;;;;;11.97;8.07;;;7.20;99.90;;;;;;5017446;28;20819;-61
2022/11/25 11:31:01;;;;;;;16.20;7.70;;;7.20;99.90;;;;;;5017092;28;20969;-61
2022/11/25 11:33:28;;;;;;;14.17;7.93;;;7.20;99.90;;;;;;5022221;28;20466;-60
2022/11/25 11:36:04;;;;;;;17.70;8.20;;;7.20;99.90;;;;;;5018443;28;20552;-60
2022/11/25 11:38:53;;;;;;;15.83;8.70;;;7.20;99.90;;;;;;5017559;28;20805;-60
2022/11/25 11:41:45;;;;;;;17.33;9.00;;;7.30;99.90;;;;;;5020249;28;20431;-61
2022/11/25 11:44:52;;;;;;;17.23;8.47;;;7.30;99.90;;;;;;5018817;28;20469;-62
2022/11/25 11:47:21;;;;;;;12.13;7.70;;;7.30;99.90;;;;;;5009083;28;20450;-60
2022/11/25 11:50:01;;;;;;;23.17;11.30;;;7.40;99.90;;;;;;5027315;28;20442;-60
2022/11/25 11:52:55;;;;;;;16.80;9.30;;;7.40;99.90;;;;;;5022907;28;20526;-61
2022/11/25 11:55:23;;;;;;;14.10;7.70;;;7.40;99.90;;;;;;5015685;28;20458;-61
2022/11/25 11:58:01;;;;;;;15.00;9.10;;;7.40;99.90;;;;;;5026619;28;21310;-60
2022/11/25 12:00:32;;;;;;;16.13;8.93;;;7.40;99.90;;;;;;5032131;28;20425;-61
2022/11/25 12:03:15;;;;;;;14.27;8.17;;;7.40;99.90;;;;;;5027402;28;20443;-60
2022/11/25 12:05:41;;;;;;;15.33;7.40;;;7.40;99.90;;;;;;5006879;28;20451;-58
2022/11/25 12:08:16;;;;;;;15.97;7.10;;;7.40;99.90;;;;;;5028643;28;20442;-58
2022/11/25 12:10:48;;;;;;;9.10;5.90;;;7.40;99.90;;;;;;5023851;28;20857;-58
2022/11/25 12:13:25;;;;;;;18.10;7.13;;;7.40;99.90;;;;;;5023260;28;20430;-59
2022/11/25 12:16:00;;;;;;;11.47;7.17;;;7.40;99.90;;;;;;5018945;28;20473;-59
2022/11/25 12:18:43;;;;;;;13.77;5.63;;;7.40;99.90;;;;;;5024099;28;21013;-60
2022/11/25 12:21:36;;;;;;;12.47;5.97;;;7.40;99.90;;;;;;5026620;28;20438;-56
2022/11/25 12:24:05;;;;;;;9.93;6.13;;;7.40;99.90;;;;;;5022337;28;21016;-57
2022/11/25 12:26:52;;;;;;;7.83;5.00;;;7.40;99.90;;;;;;5004512;28;20450;-56
2022/11/25 12:29:53;;;;;;;10.03;6.20;;;7.40;99.90;;;;;;5021099;28;20434;-58
2022/11/25 12:32:37;;;;;;;8.10;4.63;;;7.40;99.90;;;;;;5011038;28;20426;-58
2022/11/25 12:35:15;;;;;;;8.10;4.30;;;7.40;99.90;;;;;;5024130;28;20488;-58
2022/11/25 12:38:31;;;;;;;11.63;5.03;;;7.30;99.90;;;;;;5026324;28;20518;-58
2022/11/25 12:41:09;;;;;;;9.50;4.50;;;7.30;99.90;;;;;;4980795;28;20430;-58
2022/11/25 12:43:53;;;;;;;11.93;4.57;;;7.30;99.90;;;;;;5026634;28;20510;-57
2022/11/25 12:46:26;;;;;;;10.33;4.83;;;7.30;99.90;;;;;;5024307;28;20461;-57
2022/11/25 12:48:55;;;;;;;7.33;4.80;;;7.30;99.90;;;;;;5026439;28;20434;-58
2022/11/25 12:51:26;;;;;;;11.40;5.33;;;7.30;99.90;;;;;;5025689;28;20426;-59
2022/11/25 12:54:11;;;;;;;9.63;4.90;;;7.30;99.90;;;;;;5019529;28;20433;-59
2022/11/25 12:56:50;;;;;;;11.40;5.20;;;7.30;99.90;;;;;;5025691;28;20581;-52
2022/11/25 12:59:46;;;;;;;13.37;6.07;;;7.30;99.90;;;;;;5022984;28;21250;-53
2022/11/25 13:02:25;;;;;;;11.33;6.20;;;7.20;99.90;;;;;;5025040;28;20445;-51
2022/11/25 13:05:00;;;;;;;11.47;6.10;;;7.20;99.90;;;;;;5007112;28;20523;-58
2022/11/25 13:07:34;;;;;;;9.03;5.17;;;7.20;99.90;;;;;;5022900;28;20438;-58
2022/11/25 13:10:28;;;;;;;13.40;6.10;;;7.20;99.90;;;;;;5020919;28;20426;-61
2022/11/25 13:13:02;;;;;;;15.07;5.27;;;7.20;99.90;;;;;;5020078;28;21002;-60